createdAt,value
2018-06-30T00:01:16.891Z,11.30
2018-06-30T00:03:54.899Z,11.20
2018-06-30T00:06:25.170Z,11.20
2018-06-30T00:08:54.533Z,11.20
2018-06-30T00:11:23.565Z,11.20
2018-06-30T00:13:52.951Z,11.20
2018-06-30T00:16:21.725Z,11.10
2018-06-30T00:18:50.463Z,11.00
2018-06-30T00:21:19.194Z,10.90
2018-06-30T00:23:47.906Z,10.80
2018-06-30T00:26:16.649Z,10.80
2018-06-30T00:28:45.337Z,10.70
2018-06-30T00:31:14.073Z,10.70
2018-06-30T00:33:42.818Z,10.70
2018-06-30T00:36:11.558Z,10.60
2018-06-30T00:38:40.367Z,10.50
2018-06-30T00:41:09.126Z,10.50
2018-06-30T00:43:37.871Z,10.60
2018-06-30T00:46:06.644Z,10.50
2018-06-30T00:48:35.337Z,10.60
2018-06-30T00:51:04.119Z,10.50
2018-06-30T00:53:33.029Z,10.40
2018-06-30T00:56:01.734Z,10.40
2018-06-30T00:58:30.617Z,10.40
2018-06-30T01:00:59.474Z,10.40
2018-06-30T01:03:28.163Z,10.40
2018-06-30T01:05:56.902Z,10.40
2018-06-30T01:08:25.581Z,10.40
2018-06-30T01:10:54.289Z,10.30
2018-06-30T01:13:23.055Z,10.30
2018-06-30T01:15:51.787Z,10.30
2018-06-30T01:18:20.518Z,10.30
2018-06-30T01:20:49.235Z,10.30
2018-06-30T01:23:17.969Z,10.20
2018-06-30T01:25:46.665Z,10.20
2018-06-30T01:28:15.443Z,10.20
2018-06-30T01:30:44.165Z,10.30
2018-06-30T01:33:12.816Z,10.10
2018-06-30T01:35:41.517Z,10.20
2018-06-30T01:38:10.310Z,10.20
2018-06-30T01:40:58.969Z,10.20
2018-06-30T01:43:27.698Z,10.10
2018-06-30T01:45:56.434Z,10.10
2018-06-30T01:48:25.210Z,10.00
2018-06-30T01:50:53.926Z,10.00
2018-06-30T01:53:22.625Z,10.00
2018-06-30T01:55:51.298Z,9.90
2018-06-30T01:58:20.010Z,10.00
2018-06-30T02:03:51.835Z,9.90
2018-06-30T02:06:20.570Z,9.90
2018-06-30T02:08:49.312Z,9.80
2018-06-30T02:11:18.053Z,9.90
2018-06-30T02:13:46.739Z,9.90
2018-06-30T02:16:15.501Z,9.80
2018-06-30T02:18:44.229Z,9.80
2018-06-30T02:21:12.933Z,9.80
2018-06-30T02:23:41.662Z,9.80
2018-06-30T02:26:10.402Z,9.70
2018-06-30T02:28:39.078Z,9.70
2018-06-30T02:31:07.915Z,9.80
2018-06-30T02:33:36.666Z,9.70
2018-06-30T02:36:05.401Z,9.70
2018-06-30T02:38:34.126Z,9.70
2018-06-30T02:41:02.835Z,9.60
2018-06-30T02:43:31.546Z,9.70
2018-06-30T02:46:00.267Z,9.70
2018-06-30T02:48:28.950Z,9.80
2018-06-30T02:50:57.654Z,9.80
2018-06-30T02:53:26.375Z,9.90
2018-06-30T02:55:55.143Z,9.90
2018-06-30T02:58:23.898Z,9.90
2018-06-30T03:00:52.573Z,9.90
2018-06-30T03:03:21.347Z,10.00
2018-06-30T03:05:50.082Z,10.00
2018-06-30T03:08:18.855Z,10.00
2018-06-30T03:10:47.583Z,10.00
2018-06-30T03:13:16.385Z,10.10
2018-06-30T03:15:45.097Z,10.10
2018-06-30T03:18:13.818Z,10.10
2018-06-30T03:20:42.598Z,10.20
2018-06-30T03:23:11.294Z,10.20
2018-06-30T03:25:40.072Z,10.20
2018-06-30T03:28:08.766Z,10.20
2018-06-30T03:30:37.459Z,10.20
2018-06-30T03:33:06.154Z,10.20
2018-06-30T03:35:34.823Z,10.30
2018-06-30T03:38:03.541Z,10.30
2018-06-30T03:40:32.358Z,10.40
2018-06-30T03:43:01.079Z,10.40
2018-06-30T03:45:29.760Z,10.50
2018-06-30T03:47:58.509Z,10.50
2018-06-30T03:50:27.225Z,10.60
2018-06-30T03:52:55.906Z,10.70
2018-06-30T03:55:24.649Z,10.80
2018-06-30T03:57:53.394Z,10.90
2018-06-30T04:00:22.194Z,11.00
2018-06-30T04:02:50.902Z,11.10
2018-06-30T04:05:19.681Z,11.20
2018-06-30T04:07:48.387Z,11.30
2018-06-30T04:10:17.282Z,11.40
2018-06-30T04:12:46.022Z,11.60
2018-06-30T04:15:14.791Z,11.70
2018-06-30T04:17:43.607Z,11.80
2018-06-30T04:20:12.317Z,11.90
2018-06-30T04:22:40.971Z,12.00
2018-06-30T04:25:09.708Z,12.10
2018-06-30T04:27:38.404Z,12.10
2018-06-30T04:30:07.134Z,12.30
2018-06-30T04:32:35.899Z,12.40
2018-06-30T04:35:04.809Z,12.50
2018-06-30T04:37:33.481Z,12.60
2018-06-30T04:40:02.175Z,12.80
2018-06-30T04:42:30.927Z,12.90
2018-06-30T04:44:59.774Z,13.00
2018-06-30T04:47:28.614Z,13.10
2018-06-30T04:49:57.505Z,13.20
2018-06-30T04:52:26.221Z,13.40
2018-06-30T04:54:54.929Z,13.50
2018-06-30T04:57:23.759Z,13.60
2018-06-30T04:59:52.481Z,13.80
2018-06-30T05:02:21.153Z,14.00
2018-06-30T05:04:49.849Z,14.00
2018-06-30T05:07:18.586Z,14.20
2018-06-30T05:09:47.294Z,14.30
2018-06-30T05:12:16.057Z,14.40
2018-06-30T05:14:44.762Z,14.50
2018-06-30T05:17:13.527Z,14.60
2018-06-30T05:19:42.255Z,14.70
2018-06-30T05:22:10.946Z,14.90
2018-06-30T05:24:39.686Z,15.00
2018-06-30T05:27:08.885Z,15.10
2018-06-30T05:29:37.702Z,15.20
2018-06-30T05:32:06.558Z,15.30
2018-06-30T05:34:35.331Z,15.40
2018-06-30T05:37:04.217Z,15.50
2018-06-30T05:39:32.963Z,15.70
2018-06-30T05:42:01.710Z,15.80
2018-06-30T05:44:30.454Z,15.90
2018-06-30T05:46:59.182Z,16.00
2018-06-30T05:49:27.918Z,16.10
2018-06-30T05:51:56.662Z,16.10
2018-06-30T05:54:25.445Z,16.20
2018-06-30T05:56:54.174Z,16.20
2018-06-30T05:59:22.937Z,16.30
2018-06-30T06:01:51.654Z,16.40
2018-06-30T06:04:20.342Z,16.40
2018-06-30T06:06:49.074Z,16.50
2018-06-30T06:09:17.858Z,16.60
2018-06-30T06:11:46.618Z,16.70
2018-06-30T06:14:15.311Z,16.80
2018-06-30T06:16:44.098Z,16.80
2018-06-30T06:19:12.773Z,16.90
2018-06-30T06:21:41.442Z,17.00
2018-06-30T06:24:10.182Z,17.10
2018-06-30T06:26:38.867Z,17.20
2018-06-30T06:29:07.694Z,17.30
2018-06-30T06:31:36.457Z,17.40
2018-06-30T06:34:05.158Z,17.40
2018-06-30T06:36:33.861Z,17.50
2018-06-30T06:39:02.615Z,17.60
2018-06-30T06:41:31.307Z,17.70
2018-06-30T06:44:00.023Z,17.90
2018-06-30T06:46:28.981Z,17.90
2018-06-30T06:48:57.669Z,18.00
2018-06-30T06:51:26.373Z,18.10
2018-06-30T06:53:55.078Z,18.20
2018-06-30T06:56:23.789Z,18.20
2018-06-30T06:58:52.581Z,18.20
2018-06-30T07:01:21.311Z,18.40
2018-06-30T07:03:50.200Z,18.40
2018-06-30T07:06:18.674Z,18.50
2018-06-30T07:08:47.437Z,18.50
2018-06-30T07:11:16.201Z,18.60
2018-06-30T07:13:44.901Z,18.70
2018-06-30T07:16:13.620Z,18.80
2018-06-30T07:18:42.308Z,18.90
2018-06-30T07:21:11.059Z,18.90
2018-06-30T07:23:39.758Z,18.90
2018-06-30T07:26:08.574Z,19.00
2018-06-30T07:28:37.291Z,19.20
2018-06-30T07:31:05.978Z,19.10
2018-06-30T07:33:34.671Z,19.10
2018-06-30T07:36:03.391Z,19.30
2018-06-30T07:38:32.221Z,19.30
2018-06-30T07:41:00.906Z,19.50
2018-06-30T07:43:29.578Z,19.60
2018-06-30T07:45:58.269Z,19.60
2018-06-30T07:48:26.945Z,19.60
2018-06-30T07:50:55.634Z,19.60
2018-06-30T07:53:24.406Z,19.70
2018-06-30T07:55:53.066Z,19.80
2018-06-30T07:58:21.794Z,19.80
2018-06-30T08:00:50.519Z,19.90
2018-06-30T08:03:19.194Z,20.10
2018-06-30T08:05:49.282Z,20.20
2018-06-30T08:08:17.985Z,20.20
2018-06-30T08:10:46.812Z,20.30
2018-06-30T08:13:15.455Z,20.30
2018-06-30T08:15:44.446Z,20.30
2018-06-30T08:18:13.133Z,20.40
2018-06-30T08:20:41.846Z,20.60
2018-06-30T08:23:10.550Z,20.60
2018-06-30T08:25:39.300Z,20.60
2018-06-30T08:28:07.990Z,20.50
2018-06-30T08:30:36.706Z,20.50
2018-06-30T08:33:05.463Z,20.50
2018-06-30T08:35:34.249Z,20.50
2018-06-30T08:38:02.957Z,20.60
2018-06-30T08:40:31.674Z,20.70
2018-06-30T08:43:00.345Z,20.80
2018-06-30T08:45:29.110Z,21.00
2018-06-30T08:47:57.806Z,20.90
2018-06-30T08:50:26.513Z,21.00
2018-06-30T08:52:55.313Z,20.90
2018-06-30T08:55:24.097Z,21.00
2018-06-30T08:57:52.687Z,21.00
2018-06-30T09:00:21.423Z,21.00
2018-06-30T09:02:50.141Z,21.00
2018-06-30T09:05:18.852Z,21.10
2018-06-30T09:07:47.586Z,21.00
2018-06-30T09:10:16.293Z,21.10
2018-06-30T09:12:44.973Z,21.20
2018-06-30T09:15:13.711Z,21.30
2018-06-30T09:17:42.380Z,21.30
2018-06-30T09:20:11.099Z,21.40
2018-06-30T09:22:39.829Z,21.40
2018-06-30T09:25:08.510Z,21.10
2018-06-30T09:27:37.466Z,21.20
2018-06-30T09:30:07.502Z,21.10
2018-06-30T09:32:36.169Z,21.20
2018-06-30T09:35:04.887Z,21.10
2018-06-30T09:37:33.607Z,21.00
2018-06-30T09:40:02.270Z,21.00
2018-06-30T09:42:30.955Z,21.10
2018-06-30T09:44:59.706Z,21.10
2018-06-30T09:47:28.383Z,21.20
2018-06-30T09:49:57.065Z,21.30
2018-06-30T09:52:25.750Z,21.30
2018-06-30T09:54:54.416Z,21.30
2018-06-30T09:57:23.150Z,21.10
2018-06-30T09:59:51.882Z,21.20
2018-06-30T10:02:20.583Z,21.20
2018-06-30T10:04:49.279Z,21.10
2018-06-30T10:07:17.964Z,21.20
2018-06-30T10:09:46.620Z,21.30
2018-06-30T10:12:15.353Z,21.30
2018-06-30T10:14:44.054Z,21.20
2018-06-30T10:17:12.754Z,21.30
2018-06-30T10:19:41.646Z,21.30
2018-06-30T10:22:10.352Z,21.20
2018-06-30T10:24:39.142Z,21.30
2018-06-30T10:27:07.882Z,21.40
2018-06-30T10:29:36.570Z,21.60
2018-06-30T10:32:05.310Z,21.70
2018-06-30T10:34:34.006Z,21.70
2018-06-30T10:37:02.722Z,21.70
2018-06-30T10:39:31.397Z,21.80
2018-06-30T10:42:00.084Z,21.80
2018-06-30T10:44:28.886Z,21.80
2018-06-30T10:46:57.499Z,21.80
2018-06-30T10:49:26.235Z,21.90
2018-06-30T10:51:55.090Z,21.90
2018-06-30T10:54:23.825Z,22.00
2018-06-30T10:56:52.578Z,22.10
2018-06-30T10:59:21.297Z,22.00
2018-06-30T11:01:50.030Z,21.90
2018-06-30T11:04:18.762Z,21.80
2018-06-30T11:06:47.478Z,21.80
2018-06-30T11:09:16.246Z,21.80
2018-06-30T11:11:44.921Z,21.80
2018-06-30T11:14:13.626Z,22.00
2018-06-30T11:16:42.390Z,21.90
2018-06-30T11:19:11.074Z,22.00
2018-06-30T11:21:39.762Z,21.80
2018-06-30T11:24:08.522Z,21.80
2018-06-30T11:26:37.242Z,21.80
2018-06-30T11:29:06.022Z,22.00
2018-06-30T11:31:34.713Z,22.00
2018-06-30T11:34:03.410Z,21.90
2018-06-30T11:36:32.107Z,21.90
2018-06-30T11:39:00.763Z,21.90
2018-06-30T11:41:29.498Z,21.90
2018-06-30T11:43:58.281Z,22.10
2018-06-30T11:46:26.997Z,22.10
2018-06-30T11:48:55.678Z,22.00
2018-06-30T11:51:24.386Z,22.10
2018-06-30T11:53:53.062Z,22.30
2018-06-30T11:56:21.757Z,22.30
2018-06-30T11:58:50.458Z,22.30
2018-06-30T12:01:19.156Z,22.40
2018-06-30T12:03:47.827Z,22.40
2018-06-30T12:06:16.514Z,22.20
2018-06-30T12:08:45.239Z,22.50
2018-06-30T12:11:13.944Z,22.50
2018-06-30T12:13:42.670Z,22.30
2018-06-30T12:16:11.385Z,22.70
2018-06-30T12:18:40.084Z,22.50
2018-06-30T12:21:08.850Z,22.30
2018-06-30T12:23:37.762Z,22.40
2018-06-30T12:26:06.476Z,22.40
2018-06-30T12:28:35.681Z,22.60
2018-06-30T12:31:04.406Z,22.60
2018-06-30T12:33:33.117Z,22.90
2018-06-30T12:36:01.900Z,22.90
2018-06-30T12:38:30.665Z,23.10
2018-06-30T12:40:59.429Z,23.30
2018-06-30T12:43:28.178Z,23.40
2018-06-30T12:45:56.876Z,23.80
2018-06-30T12:53:25.886Z,26.90
2018-06-30T12:55:54.584Z,27.60
2018-06-30T12:58:23.238Z,29.10
2018-06-30T13:00:51.935Z,29.80
2018-06-30T13:03:20.849Z,31.10
2018-06-30T13:05:49.622Z,31.30
2018-06-30T13:08:18.315Z,33.20
2018-06-30T13:10:47.055Z,34.00
2018-06-30T13:13:15.797Z,34.00
2018-06-30T13:15:44.544Z,34.20
2018-06-30T13:18:13.244Z,34.20
2018-06-30T13:20:41.922Z,33.10
2018-06-30T13:23:10.605Z,33.90
2018-06-30T13:25:39.335Z,33.90
2018-06-30T13:28:08.064Z,31.80
2018-06-30T13:30:36.810Z,31.60
2018-06-30T13:33:05.610Z,31.90
2018-06-30T13:35:34.282Z,33.00
2018-06-30T13:38:03.017Z,33.40
2018-06-30T13:40:31.738Z,32.10
2018-06-30T13:43:00.528Z,32.80
2018-06-30T13:45:29.238Z,33.70
2018-06-30T13:47:57.996Z,33.20
2018-06-30T13:50:26.763Z,32.60
2018-06-30T13:52:55.461Z,32.50
2018-06-30T13:55:24.170Z,33.10
2018-06-30T13:57:52.834Z,33.80
2018-06-30T14:00:21.570Z,35.00
2018-06-30T14:02:50.362Z,34.80
2018-06-30T14:05:19.043Z,33.80
2018-06-30T14:10:16.089Z,33.60
2018-06-30T14:12:44.800Z,35.10
2018-06-30T14:15:13.577Z,34.50
2018-06-30T14:17:42.338Z,34.30
2018-06-30T14:20:11.295Z,33.70
2018-06-30T14:22:40.034Z,33.80
2018-06-30T14:25:08.882Z,33.70
2018-06-30T14:27:37.601Z,32.60
2018-06-30T14:30:08.710Z,32.80
2018-06-30T14:32:37.450Z,33.50
2018-06-30T14:35:06.346Z,32.00
2018-06-30T14:37:35.112Z,32.30
2018-06-30T14:40:03.933Z,32.30
2018-06-30T14:42:32.664Z,31.80
2018-06-30T14:45:01.430Z,31.70
2018-06-30T14:47:30.154Z,31.10
2018-06-30T14:52:27.945Z,31.10
2018-06-30T14:54:56.646Z,32.40
2018-06-30T14:57:25.333Z,32.30
2018-06-30T14:59:54.154Z,32.80
2018-06-30T15:02:22.841Z,33.00
2018-06-30T15:04:51.530Z,31.60
2018-06-30T15:07:20.280Z,30.50
2018-06-30T15:09:49.009Z,32.50
2018-06-30T15:12:17.762Z,30.90
2018-06-30T15:14:46.486Z,31.00
2018-06-30T15:17:15.179Z,30.00
2018-06-30T15:19:43.909Z,31.00
2018-06-30T15:24:41.106Z,30.30
2018-06-30T15:27:10.288Z,29.80
2018-06-30T15:29:39.358Z,29.80
2018-06-30T15:32:08.328Z,29.90
2018-06-30T15:35:14.207Z,30.10
2018-06-30T15:37:43.614Z,29.50
2018-06-30T15:44:02.270Z,29.00
2018-06-30T15:46:31.001Z,28.30
2018-06-30T15:48:59.917Z,27.40
2018-06-30T15:51:28.685Z,27.70
2018-06-30T15:53:58.111Z,27.80
2018-06-30T15:56:27.670Z,27.60
2018-06-30T15:58:56.447Z,27.30
2018-06-30T16:03:53.487Z,25.60
2018-06-30T16:06:22.190Z,24.60
2018-06-30T16:08:50.951Z,23.20
2018-06-30T16:11:19.639Z,22.80
2018-06-30T16:13:48.359Z,22.60
2018-06-30T16:16:17.088Z,22.30
2018-06-30T16:18:45.835Z,22.10
2018-06-30T16:21:14.526Z,21.70
2018-06-30T16:23:43.179Z,21.60
2018-06-30T16:26:11.847Z,21.50
2018-06-30T16:28:40.611Z,21.50
2018-06-30T16:31:09.314Z,21.50
2018-06-30T16:33:37.966Z,21.50
2018-06-30T16:36:06.742Z,21.50
2018-06-30T16:38:35.394Z,21.30
2018-06-30T16:41:04.122Z,21.20
2018-06-30T16:43:32.833Z,21.20
2018-06-30T16:46:01.649Z,21.00
2018-06-30T16:48:30.305Z,21.00
2018-06-30T16:50:59.082Z,20.80
2018-06-30T16:53:27.740Z,20.80
2018-06-30T16:55:56.386Z,20.80
2018-06-30T16:58:25.081Z,20.70
2018-06-30T17:00:53.794Z,20.70
2018-06-30T17:03:22.481Z,20.60
2018-06-30T17:05:51.162Z,20.60
2018-06-30T17:08:19.845Z,20.60
2018-06-30T17:10:48.586Z,20.50
2018-06-30T17:13:17.294Z,20.50
2018-06-30T17:15:45.958Z,20.50
2018-06-30T17:18:14.670Z,20.40
2018-06-30T17:20:43.401Z,20.40
2018-06-30T17:23:12.062Z,20.30
2018-06-30T17:25:40.752Z,20.20
2018-06-30T17:28:09.485Z,20.20
2018-06-30T17:30:38.254Z,20.30
2018-06-30T17:33:07.117Z,20.30
2018-06-30T17:35:35.831Z,20.20
2018-06-30T17:38:04.598Z,20.20
2018-06-30T17:40:33.281Z,20.20
2018-06-30T17:43:02.101Z,20.10
2018-06-30T17:45:30.812Z,20.10
2018-06-30T17:47:59.491Z,20.10
2018-06-30T17:50:28.185Z,20.10
2018-06-30T17:52:56.853Z,20.10
2018-06-30T17:55:25.555Z,20.00
2018-06-30T17:57:54.290Z,20.00
2018-06-30T18:00:22.990Z,20.00
2018-06-30T18:05:20.018Z,19.90
2018-06-30T18:07:48.718Z,19.90
2018-06-30T18:10:17.605Z,19.90
2018-06-30T18:12:46.271Z,19.90
2018-06-30T18:15:14.997Z,19.80
2018-06-30T18:17:43.699Z,19.80
2018-06-30T18:20:12.410Z,19.80
2018-06-30T18:22:41.144Z,19.70
2018-06-30T18:25:09.814Z,19.70
2018-06-30T18:27:38.514Z,19.60
2018-06-30T18:30:07.567Z,19.60
2018-06-30T18:32:36.255Z,19.60
2018-06-30T18:35:05.464Z,19.50
2018-06-30T18:37:34.200Z,19.50
2018-06-30T18:40:02.894Z,19.50
2018-06-30T18:42:31.629Z,19.40
2018-06-30T18:45:00.353Z,19.40
2018-06-30T18:47:29.074Z,19.40
2018-06-30T18:49:57.765Z,19.40
2018-06-30T18:52:26.576Z,19.30
2018-06-30T18:54:55.259Z,19.30
2018-06-30T18:57:24.006Z,19.30
2018-06-30T18:59:52.799Z,19.20
2018-06-30T19:02:21.447Z,19.10
2018-06-30T19:04:50.198Z,19.10
2018-06-30T19:07:18.918Z,19.00
2018-06-30T19:09:47.617Z,19.00
2018-06-30T19:12:16.274Z,18.90
2018-06-30T19:14:45.021Z,18.90
2018-06-30T19:17:13.744Z,18.80
2018-06-30T19:19:42.866Z,18.70
2018-06-30T19:22:11.590Z,18.60
2018-06-30T19:24:40.285Z,18.60
2018-06-30T19:27:09.106Z,18.60
2018-06-30T19:29:37.874Z,18.50
2018-06-30T19:32:06.834Z,18.50
2018-06-30T19:34:35.531Z,18.50
2018-06-30T19:37:04.289Z,18.50
2018-06-30T19:39:33.035Z,18.50
2018-06-30T19:42:01.824Z,18.50
2018-06-30T19:44:30.547Z,18.50
2018-06-30T19:46:59.270Z,18.50
2018-06-30T19:49:27.978Z,18.40
2018-06-30T19:51:56.746Z,18.40
2018-06-30T19:54:25.498Z,18.30
2018-06-30T19:56:54.216Z,18.30
2018-06-30T19:59:22.939Z,18.20
2018-06-30T20:01:51.657Z,18.10
2018-06-30T20:04:20.362Z,18.00
2018-06-30T20:06:49.034Z,17.90
2018-06-30T20:09:17.727Z,17.90
2018-06-30T20:11:46.453Z,17.80
2018-06-30T20:14:15.192Z,17.70
2018-06-30T20:16:43.853Z,17.60
2018-06-30T20:19:12.590Z,17.50
2018-06-30T20:21:41.370Z,17.50
2018-06-30T20:24:10.151Z,17.40
2018-06-30T20:26:38.869Z,17.30
2018-06-30T20:29:07.623Z,17.20
2018-06-30T20:31:36.450Z,17.20
2018-06-30T20:34:05.182Z,17.10
2018-06-30T20:36:33.865Z,17.10
2018-06-30T20:39:02.611Z,17.00
2018-06-30T20:41:31.339Z,16.90
2018-06-30T20:44:00.052Z,16.80
2018-06-30T20:46:28.828Z,16.70
2018-06-30T20:48:57.558Z,16.60
2018-06-30T20:51:26.283Z,16.50
2018-06-30T20:53:54.978Z,16.50
2018-06-30T20:56:23.661Z,16.40
2018-06-30T20:58:52.454Z,16.30
2018-06-30T21:01:21.313Z,16.40
2018-06-30T21:03:50.017Z,16.30
2018-06-30T21:06:18.805Z,16.20
2018-06-30T21:08:47.565Z,16.10
2018-06-30T21:11:16.304Z,16.10
2018-06-30T21:13:45.027Z,16.00
2018-06-30T21:16:13.881Z,15.90
2018-06-30T21:18:42.614Z,15.80
2018-06-30T21:21:11.370Z,15.60
2018-06-30T21:23:40.186Z,15.60
2018-06-30T21:26:08.966Z,15.60
2018-06-30T21:28:37.742Z,15.60
2018-06-30T21:31:06.598Z,15.60
2018-06-30T21:33:35.371Z,15.50
2018-06-30T21:36:04.152Z,15.50
2018-06-30T21:38:33.055Z,15.40
2018-06-30T21:41:01.860Z,15.30
2018-06-30T21:43:30.575Z,15.20
2018-06-30T21:45:59.342Z,15.20
2018-06-30T21:48:28.094Z,15.10
2018-06-30T21:50:56.829Z,15.10
2018-06-30T21:53:25.541Z,15.00
2018-06-30T21:55:54.245Z,14.90
2018-06-30T21:58:22.954Z,14.90
2018-06-30T22:00:56.868Z,14.80
2018-06-30T22:03:26.765Z,14.70
2018-06-30T22:05:57.613Z,14.70
2018-06-30T22:08:26.322Z,14.60
2018-06-30T22:10:55.075Z,14.70
2018-06-30T22:13:23.721Z,14.60
2018-06-30T22:15:52.450Z,14.50
2018-06-30T22:18:21.289Z,14.50
2018-06-30T22:20:49.984Z,14.30
2018-06-30T22:23:18.717Z,14.30
2018-06-30T22:25:47.394Z,14.10
2018-06-30T22:28:16.266Z,14.10
2018-06-30T22:30:44.965Z,14.00
2018-06-30T22:33:13.653Z,14.00
2018-06-30T22:35:42.422Z,13.90
2018-06-30T22:38:11.188Z,13.80
2018-06-30T22:40:39.841Z,13.70
2018-06-30T22:43:08.611Z,13.70
2018-06-30T22:45:37.334Z,13.60
2018-06-30T22:48:06.097Z,13.60
2018-06-30T22:50:34.858Z,13.60
2018-06-30T22:53:03.619Z,13.50
2018-06-30T22:55:32.289Z,13.50
2018-06-30T22:58:00.955Z,13.40
2018-06-30T23:00:29.679Z,13.40
2018-06-30T23:02:58.311Z,13.40
2018-06-30T23:05:27.014Z,13.30
2018-06-30T23:07:55.730Z,13.30
2018-06-30T23:10:24.445Z,13.30
2018-06-30T23:12:53.117Z,13.30
2018-06-30T23:15:21.767Z,13.20
2018-06-30T23:17:50.437Z,13.20
2018-06-30T23:20:19.286Z,13.20
2018-06-30T23:22:56.910Z,13.00
2018-06-30T23:25:27.169Z,13.00
2018-06-30T23:27:56.596Z,13.00
2018-06-30T23:30:26.042Z,12.90
2018-06-30T23:32:54.746Z,12.60
2018-06-30T23:35:26.390Z,12.50
2018-06-30T23:37:56.510Z,12.60
2018-06-30T23:40:25.258Z,12.60
2018-06-30T23:42:54.095Z,12.50
2018-06-30T23:45:23.472Z,12.50
2018-06-30T23:47:53.055Z,12.50
2018-06-30T23:50:22.225Z,12.40
2018-06-30T23:52:51.171Z,12.40
2018-06-30T23:55:20.003Z,12.40
